createdAt,value
2022-12-16T00:00:20.612Z,28.03
2022-12-16T00:02:51.720Z,22.90
2022-12-16T00:05:22.996Z,27.10
2022-12-16T00:07:51.360Z,24.33
2022-12-16T00:10:21.285Z,21.07
2022-12-16T00:12:49.382Z,26.07
2022-12-16T00:15:20.018Z,22.83
2022-12-16T00:17:48.085Z,25.80
2022-12-16T00:20:16.336Z,25.53
2022-12-16T00:22:44.389Z,28.87
2022-12-16T00:25:14.768Z,24.87
2022-12-16T00:27:46.683Z,24.87
2022-12-16T00:30:15.444Z,25.97
2022-12-16T00:32:43.532Z,25.93
2022-12-16T00:35:11.653Z,23.13
2022-12-16T00:37:39.715Z,27.93
2022-12-16T00:40:08.811Z,27.07
2022-12-16T00:42:39.285Z,26.17
2022-12-16T00:45:09.663Z,26.97
2022-12-16T00:47:42.448Z,25.30
2022-12-16T00:50:12.656Z,21.07
2022-12-16T00:52:40.931Z,22.90
2022-12-16T00:55:09.814Z,26.37
2022-12-16T00:57:38.012Z,21.57
2022-12-16T01:00:12.883Z,23.37
2022-12-16T01:02:42.030Z,20.60
2022-12-16T01:05:14.333Z,22.17
2022-12-16T01:07:42.631Z,28.40
2022-12-16T01:10:12.198Z,21.33
2022-12-16T01:12:42.784Z,23.03
2022-12-16T01:15:14.944Z,26.40
2022-12-16T01:17:43.306Z,22.37
2022-12-16T01:20:14.244Z,24.50
2022-12-16T01:22:42.745Z,26.80
2022-12-16T01:25:13.886Z,27.10
2022-12-16T01:27:42.313Z,20.50
2022-12-16T01:30:13.794Z,24.60
2022-12-16T01:32:44.906Z,22.90
2022-12-16T01:35:43.790Z,26.13
2022-12-16T01:38:01.519Z,26.70
2022-12-16T01:40:30.569Z,20.93
2022-12-16T01:42:58.559Z,23.57
2022-12-16T01:45:34.667Z,21.27
2022-12-16T01:48:14.932Z,27.57
2022-12-16T01:50:46.068Z,27.00
2022-12-16T01:53:14.856Z,22.87
2022-12-16T01:55:47.674Z,21.87
2022-12-16T01:58:21.120Z,24.97
2022-12-16T02:00:53.277Z,29.90
2022-12-16T02:03:23.592Z,24.47
2022-12-16T02:05:52.972Z,23.70
2022-12-16T02:08:22.608Z,30.17
2022-12-16T02:11:03.019Z,25.30
2022-12-16T02:13:46.803Z,28.10
2022-12-16T02:16:22.401Z,29.77
2022-12-16T02:18:56.486Z,25.47
2022-12-16T02:21:48.747Z,27.83
2022-12-16T02:25:09.522Z,24.67
2022-12-16T02:27:50.549Z,21.60
2022-12-16T02:30:43.271Z,25.00
2022-12-16T02:33:24.093Z,23.03
2022-12-16T02:35:58.149Z,24.03
2022-12-16T02:38:33.086Z,24.83
2022-12-16T02:41:05.151Z,25.60
2022-12-16T02:43:53.104Z,24.60
2022-12-16T02:46:30.021Z,20.30
2022-12-16T02:48:58.261Z,23.90
2022-12-16T02:51:27.802Z,23.87
2022-12-16T02:53:56.747Z,27.87
2022-12-16T02:56:34.876Z,24.43
2022-12-16T02:59:17.497Z,26.47
2022-12-16T03:01:54.907Z,21.63
2022-12-16T03:04:32.928Z,22.83
2022-12-16T03:07:02.841Z,24.40
2022-12-16T03:09:34.665Z,27.30
2022-12-16T03:12:07.044Z,23.73
2022-12-16T03:14:39.260Z,22.03
2022-12-16T03:17:11.867Z,22.60
2022-12-16T03:19:46.591Z,20.40
2022-12-16T03:22:19.350Z,22.43
2022-12-16T03:24:47.896Z,20.63
2022-12-16T03:27:22.567Z,22.13
2022-12-16T03:29:55.836Z,22.43
2022-12-16T03:32:32.368Z,27.30
2022-12-16T03:35:02.942Z,23.07
2022-12-16T03:37:34.970Z,22.13
2022-12-16T03:40:06.549Z,20.33
2022-12-16T03:42:36.397Z,27.07
2022-12-16T03:45:08.388Z,25.50
2022-12-16T03:47:39.431Z,19.30
2022-12-16T03:50:08.911Z,23.77
2022-12-16T03:52:37.322Z,22.87
2022-12-16T03:55:05.899Z,23.03
2022-12-16T03:57:34.009Z,21.37
2022-12-16T04:00:04.877Z,23.30
2022-12-16T04:02:41.461Z,22.90
2022-12-16T04:05:10.486Z,20.23
2022-12-16T04:07:40.660Z,22.27
2022-12-16T04:10:11.875Z,22.10
2022-12-16T04:12:59.378Z,24.80
2022-12-16T04:15:46.284Z,23.70
2022-12-16T04:18:36.659Z,24.10
2022-12-16T04:21:36.130Z,19.83
2022-12-16T04:24:24.104Z,20.67
2022-12-16T04:27:15.561Z,18.67
2022-12-16T04:29:58.368Z,20.63
2022-12-16T04:32:26.831Z,20.43
2022-12-16T04:35:12.488Z,19.53
2022-12-16T04:37:58.203Z,24.17
2022-12-16T04:40:43.894Z,21.60
2022-12-16T04:43:31.998Z,23.93
2022-12-16T04:46:17.011Z,28.37
2022-12-16T04:49:04.890Z,28.57
2022-12-16T04:51:51.639Z,26.30
2022-12-16T04:54:38.450Z,25.57
2022-12-16T04:57:23.820Z,24.57
2022-12-16T05:00:12.060Z,24.70
2022-12-16T05:02:57.656Z,23.70
2022-12-16T05:05:43.044Z,25.10
2022-12-16T05:08:30.325Z,22.93
2022-12-16T05:11:16.044Z,25.23
2022-12-16T05:14:03.551Z,24.23
2022-12-16T05:16:51.416Z,24.63
2022-12-16T05:19:45.349Z,23.30
2022-12-16T05:22:31.050Z,25.50
2022-12-16T05:25:18.242Z,24.73
2022-12-16T05:28:09.882Z,20.03
2022-12-16T05:30:55.713Z,20.73
2022-12-16T05:33:43.674Z,18.50
2022-12-16T05:36:29.268Z,21.70
2022-12-16T05:39:17.497Z,18.07
2022-12-16T05:42:04.308Z,21.90
2022-12-16T05:44:50.370Z,19.47
2022-12-16T05:47:36.067Z,24.20
2022-12-16T05:50:24.806Z,21.17
2022-12-16T05:53:17.300Z,20.87
2022-12-16T05:56:03.123Z,18.83
2022-12-16T05:58:50.079Z,18.53
2022-12-16T06:01:36.963Z,19.30
2022-12-16T06:04:25.695Z,20.53
2022-12-16T06:07:11.500Z,23.47
2022-12-16T06:09:59.372Z,19.10
2022-12-16T06:12:44.891Z,20.00
2022-12-16T06:15:34.403Z,19.70
2022-12-16T06:18:20.128Z,22.20
2022-12-16T06:21:05.818Z,21.50
2022-12-16T06:23:48.358Z,19.07
2022-12-16T06:26:36.095Z,21.23
2022-12-16T06:29:21.451Z,18.93
2022-12-16T06:32:08.137Z,18.47
2022-12-16T06:34:53.565Z,22.77
2022-12-16T06:37:41.166Z,20.70
2022-12-16T06:40:29.137Z,22.50
2022-12-16T06:43:15.116Z,19.93
2022-12-16T06:46:00.470Z,17.70
2022-12-16T06:48:49.535Z,20.33
2022-12-16T06:51:35.166Z,21.00
2022-12-16T06:54:20.856Z,22.67
2022-12-16T06:57:06.591Z,23.90
2022-12-16T06:59:54.577Z,21.93
2022-12-16T07:02:40.296Z,22.50
2022-12-16T07:05:27.870Z,23.90
2022-12-16T07:08:13.469Z,18.97
2022-12-16T07:11:09.181Z,23.23
2022-12-16T07:14:01.129Z,22.40
2022-12-16T07:16:47.036Z,17.20
2022-12-16T07:19:32.775Z,18.57
2022-12-16T07:22:19.861Z,21.10
2022-12-16T07:25:05.506Z,22.10
2022-12-16T07:27:53.159Z,20.17
2022-12-16T07:30:38.704Z,23.23
2022-12-16T07:33:26.412Z,23.07
2022-12-16T07:36:12.299Z,21.63
2022-12-16T07:38:59.113Z,18.27
2022-12-16T07:41:44.524Z,23.63
2022-12-16T07:44:29.974Z,23.37
2022-12-16T07:47:15.982Z,21.60
2022-12-16T07:50:01.703Z,20.07
2022-12-16T07:52:49.530Z,22.43
2022-12-16T07:55:36.416Z,20.63
2022-12-16T07:58:21.809Z,25.40
2022-12-16T08:01:10.006Z,22.00
2022-12-16T08:03:57.660Z,27.07
2022-12-16T08:06:43.066Z,27.40
2022-12-16T08:09:30.887Z,31.37
2022-12-16T08:12:20.137Z,34.43
2022-12-16T08:15:08.386Z,28.77
2022-12-16T08:17:54.133Z,33.47
2022-12-16T08:20:41.140Z,39.83
2022-12-16T08:23:27.012Z,40.77
2022-12-16T08:26:12.497Z,37.07
2022-12-16T08:29:20.276Z,35.87
2022-12-16T08:32:07.416Z,36.03
2022-12-16T08:34:52.995Z,37.63
2022-12-16T08:37:43.888Z,38.47
2022-12-16T08:40:36.027Z,50.27
2022-12-16T08:43:24.601Z,43.90
2022-12-16T08:46:12.915Z,39.43
2022-12-16T08:48:58.735Z,39.73
2022-12-16T08:51:47.150Z,55.20
2022-12-16T08:54:32.816Z,42.97
2022-12-16T08:57:20.498Z,43.10
2022-12-16T09:00:06.082Z,56.23
2022-12-16T09:02:55.789Z,48.70
2022-12-16T09:05:42.242Z,45.20
2022-12-16T09:08:27.833Z,40.37
2022-12-16T09:11:19.706Z,46.50
2022-12-16T09:14:05.540Z,46.37
2022-12-16T09:16:50.861Z,43.07
2022-12-16T09:19:38.427Z,46.73
2022-12-16T09:22:26.149Z,42.90
2022-12-16T09:25:11.843Z,49.47
2022-12-16T09:27:57.604Z,38.70
2022-12-16T09:30:43.168Z,52.57
2022-12-16T09:33:28.942Z,44.57
2022-12-16T09:36:15.981Z,42.30
2022-12-16T09:39:01.387Z,50.70
2022-12-16T09:41:59.200Z,44.77
2022-12-16T09:44:57.553Z,47.23
2022-12-16T09:47:50.950Z,42.77
2022-12-16T09:50:40.239Z,39.13
2022-12-16T09:53:31.622Z,46.20
2022-12-16T09:56:17.693Z,38.50
2022-12-16T09:59:09.670Z,39.63
2022-12-16T10:01:58.973Z,42.30
2022-12-16T10:04:45.106Z,33.87
2022-12-16T10:07:35.642Z,34.57
2022-12-16T10:10:35.134Z,33.93
2022-12-16T10:13:28.170Z,36.67
2022-12-16T10:16:23.757Z,34.17
2022-12-16T10:19:17.701Z,37.00
2022-12-16T10:22:10.538Z,37.77
2022-12-16T10:25:07.154Z,37.73
2022-12-16T10:28:02.344Z,32.87
2022-12-16T10:30:48.721Z,33.40
2022-12-16T10:33:36.674Z,39.93
2022-12-16T10:36:23.538Z,34.70
2022-12-16T10:39:11.960Z,34.70
2022-12-16T10:42:02.128Z,38.43
2022-12-16T10:44:54.508Z,41.33
2022-12-16T10:47:41.744Z,39.30
2022-12-16T10:50:31.951Z,38.43
2022-12-16T10:53:20.251Z,29.43
2022-12-16T10:56:18.655Z,35.60
2022-12-16T10:59:12.883Z,36.23
2022-12-16T11:02:00.192Z,31.53
2022-12-16T11:04:51.549Z,34.40
2022-12-16T11:07:50.323Z,34.37
2022-12-16T11:10:52.110Z,31.33
2022-12-16T11:13:44.239Z,37.70
2022-12-16T11:16:35.400Z,38.17
2022-12-16T11:19:38.518Z,34.50
2022-12-16T11:22:25.737Z,34.03
2022-12-16T11:25:27.203Z,34.93
2022-12-16T11:28:22.602Z,39.60
2022-12-16T11:31:13.016Z,37.10
2022-12-16T11:34:02.550Z,36.77
2022-12-16T11:36:54.461Z,39.53
2022-12-16T11:39:42.405Z,36.30
2022-12-16T11:42:35.640Z,40.87
2022-12-16T11:45:32.308Z,34.17
2022-12-16T11:48:26.951Z,37.33
2022-12-16T11:51:16.635Z,33.47
2022-12-16T11:54:07.579Z,36.17
2022-12-16T11:56:57.543Z,38.07
2022-12-16T11:59:52.428Z,38.33
2022-12-16T12:02:46.969Z,33.30
2022-12-16T12:05:33.621Z,34.30
2022-12-16T12:08:27.479Z,35.20
2022-12-16T12:11:25.065Z,34.47
2022-12-16T12:14:23.677Z,34.27
2022-12-16T12:17:25.478Z,36.47
2022-12-16T12:20:26.313Z,36.67
2022-12-16T12:23:21.161Z,32.23
2022-12-16T12:26:14.926Z,35.90
2022-12-16T12:29:09.415Z,32.60
2022-12-16T12:32:03.875Z,33.83
2022-12-16T12:34:57.461Z,36.77
2022-12-16T12:37:48.765Z,33.07
2022-12-16T12:40:49.383Z,29.47
2022-12-16T12:43:56.086Z,32.23
2022-12-16T12:46:46.121Z,31.20
2022-12-16T12:49:41.009Z,32.00
2022-12-16T12:52:36.276Z,39.63
2022-12-16T12:55:29.356Z,33.00
2022-12-16T12:58:18.258Z,33.13
2022-12-16T13:01:10.789Z,35.90
2022-12-16T13:04:01.668Z,35.47
2022-12-16T13:06:48.208Z,27.87
2022-12-16T13:09:49.416Z,32.87
2022-12-16T13:12:47.272Z,35.27
2022-12-16T13:15:53.531Z,32.30
2022-12-16T13:18:41.828Z,30.33
2022-12-16T13:22:02.273Z,36.17
2022-12-16T13:24:59.111Z,31.90
2022-12-16T13:27:46.264Z,32.90
2022-12-16T13:30:44.132Z,30.97
2022-12-16T13:33:43.364Z,36.10
2022-12-16T13:36:31.072Z,36.63
2022-12-16T13:39:26.263Z,40.03
2022-12-16T13:42:19.361Z,36.90
2022-12-16T13:45:16.243Z,38.17
2022-12-16T13:48:43.782Z,36.70
2022-12-16T13:52:05.013Z,35.93
2022-12-16T13:54:55.266Z,35.03
2022-12-16T13:57:43.734Z,39.30
2022-12-16T14:00:37.189Z,41.60
2022-12-16T14:03:28.531Z,34.50
2022-12-16T14:06:14.342Z,35.87
2022-12-16T14:09:00.815Z,39.40
2022-12-16T14:12:01.523Z,35.47
2022-12-16T14:14:54.225Z,35.97
2022-12-16T14:17:45.288Z,36.83
2022-12-16T14:20:36.992Z,35.07
2022-12-16T14:26:45.544Z,42.33
2022-12-16T14:29:43.742Z,39.10
2022-12-16T14:32:40.203Z,36.00
2022-12-16T14:35:31.704Z,33.17
2022-12-16T14:38:17.839Z,35.43
2022-12-16T14:41:10.172Z,35.50
2022-12-16T14:43:55.959Z,38.20
2022-12-16T14:46:48.467Z,48.23
2022-12-16T14:49:40.814Z,45.17
2022-12-16T14:52:36.061Z,39.03
2022-12-16T14:55:33.979Z,39.83
2022-12-16T14:58:25.067Z,36.67
2022-12-16T15:01:15.860Z,38.97
2022-12-16T15:04:19.760Z,39.30
2022-12-16T15:07:11.078Z,36.23
2022-12-16T15:10:01.393Z,31.77
2022-12-16T15:12:50.610Z,34.87
2022-12-16T15:15:45.080Z,34.43
2022-12-16T15:18:36.042Z,35.33
2022-12-16T15:21:26.274Z,36.33
2022-12-16T15:24:12.657Z,31.83
2022-12-16T15:26:58.439Z,33.53
2022-12-16T15:29:51.658Z,34.03
2022-12-16T15:32:51.641Z,30.47
2022-12-16T15:35:45.516Z,30.30
2022-12-16T15:38:41.624Z,30.20
2022-12-16T15:41:39.823Z,32.57
2022-12-16T15:44:34.976Z,31.27
2022-12-16T15:47:20.686Z,34.30
2022-12-16T15:50:08.548Z,33.27
2022-12-16T15:52:56.486Z,30.30
2022-12-16T15:55:50.084Z,31.07
2022-12-16T15:58:41.371Z,33.73
2022-12-16T16:01:32.389Z,31.87
2022-12-16T16:04:18.710Z,34.37
2022-12-16T16:07:09.278Z,33.67
2022-12-16T16:09:58.727Z,36.10
2022-12-16T16:12:45.854Z,29.40
2022-12-16T16:15:33.853Z,33.13
2022-12-16T16:18:22.043Z,30.33
2022-12-16T16:21:10.310Z,34.70
2022-12-16T16:23:58.130Z,33.50
2022-12-16T16:26:46.245Z,34.87
2022-12-16T16:29:33.288Z,34.13
2022-12-16T16:32:20.221Z,39.03
2022-12-16T16:35:05.787Z,34.33
2022-12-16T16:37:51.253Z,38.13
2022-12-16T16:40:45.644Z,39.67
2022-12-16T16:43:31.548Z,34.67
2022-12-16T16:46:24.729Z,31.67
2022-12-16T16:49:12.510Z,35.07
2022-12-16T16:51:57.940Z,34.43
2022-12-16T16:54:51.692Z,33.27
2022-12-16T16:57:39.486Z,36.20
2022-12-16T17:00:26.560Z,38.47
2022-12-16T17:03:16.196Z,36.70
2022-12-16T17:06:04.541Z,42.17
2022-12-16T17:08:50.333Z,36.30
2022-12-16T17:11:38.282Z,38.23
2022-12-16T17:14:30.427Z,42.20
2022-12-16T17:17:18.858Z,43.63
2022-12-16T17:20:06.220Z,39.97
2022-12-16T17:22:51.921Z,41.30
2022-12-16T17:25:38.262Z,42.20
2022-12-16T17:28:24.287Z,43.07
2022-12-16T17:31:12.131Z,38.13
2022-12-16T17:33:57.934Z,43.47
2022-12-16T17:36:47.235Z,38.37
2022-12-16T17:39:34.944Z,41.90
2022-12-16T17:42:20.519Z,40.47
2022-12-16T17:45:06.063Z,37.17
2022-12-16T17:47:52.978Z,38.87
2022-12-16T17:50:41.027Z,41.13
2022-12-16T17:53:30.583Z,36.10
2022-12-16T17:56:21.880Z,38.27
2022-12-16T17:59:09.067Z,37.13
2022-12-16T18:01:56.833Z,37.87
2022-12-16T18:04:42.589Z,45.90
2022-12-16T18:07:28.242Z,40.70
2022-12-16T18:10:15.486Z,35.97
2022-12-16T18:13:03.455Z,39.30
2022-12-16T18:15:48.865Z,37.47
2022-12-16T18:18:34.768Z,38.60
2022-12-16T18:21:29.711Z,38.80
2022-12-16T18:24:17.477Z,38.37
2022-12-16T18:27:06.620Z,38.30
2022-12-16T18:29:52.094Z,42.70
2022-12-16T18:32:39.888Z,43.87
2022-12-16T18:35:26.560Z,42.33
2022-12-16T18:38:16.253Z,44.40
2022-12-16T18:41:02.075Z,45.27
2022-12-16T18:43:51.408Z,43.90
2022-12-16T18:46:37.170Z,42.37
2022-12-16T18:49:23.163Z,46.30
2022-12-16T18:52:08.616Z,48.27
2022-12-16T18:54:56.422Z,48.90
2022-12-16T18:57:42.208Z,50.27
2022-12-16T19:00:29.877Z,52.40
2022-12-16T19:03:15.693Z,52.20
2022-12-16T19:06:01.219Z,48.43
2022-12-16T19:08:48.376Z,48.80
2022-12-16T19:11:33.898Z,43.20
2022-12-16T19:14:19.875Z,52.77
2022-12-16T19:17:07.117Z,47.03
2022-12-16T19:19:52.787Z,48.07
2022-12-16T19:22:39.223Z,55.17
2022-12-16T19:25:26.221Z,57.63
2022-12-16T19:28:13.997Z,51.63
2022-12-16T19:30:59.461Z,53.23
2022-12-16T19:33:46.581Z,57.57
2022-12-16T19:36:31.972Z,55.87
2022-12-16T19:39:19.905Z,52.57
2022-12-16T19:42:05.360Z,50.23
2022-12-16T19:44:50.781Z,61.57
2022-12-16T19:47:54.744Z,61.63
2022-12-16T19:50:44.042Z,55.03
2022-12-16T19:53:32.102Z,55.50
2022-12-16T19:56:18.681Z,59.43
2022-12-16T19:59:06.541Z,53.97
2022-12-16T20:01:52.307Z,59.33
2022-12-16T20:04:40.544Z,58.47
2022-12-16T20:07:27.567Z,52.87
2022-12-16T20:10:13.173Z,64.33
2022-12-16T20:12:58.471Z,62.83
2022-12-16T20:15:43.939Z,61.03
2022-12-16T20:18:34.033Z,61.63
2022-12-16T20:21:20.609Z,66.47
2022-12-16T20:24:08.056Z,76.77
2022-12-16T20:26:54.026Z,71.93
2022-12-16T20:29:43.296Z,74.00
2022-12-16T20:32:31.043Z,67.57
2022-12-16T20:35:19.088Z,69.50
2022-12-16T20:38:04.854Z,62.53
2022-12-16T20:40:51.633Z,63.80
2022-12-16T20:43:47.808Z,55.33
2022-12-16T20:46:35.479Z,57.60
2022-12-16T20:49:21.173Z,57.70
2022-12-16T20:52:06.671Z,81.70
2022-12-16T20:54:52.079Z,68.50
2022-12-16T20:57:38.897Z,55.70
2022-12-16T21:00:25.764Z,63.03
2022-12-16T21:03:11.578Z,55.90
2022-12-16T21:06:00.600Z,53.33
2022-12-16T21:08:48.662Z,52.93
2022-12-16T21:11:36.500Z,60.57
2022-12-16T21:14:23.312Z,73.30
2022-12-16T21:17:08.828Z,65.70
2022-12-16T21:20:06.555Z,64.40
2022-12-16T21:22:52.491Z,57.00
2022-12-16T21:25:38.749Z,59.57
2022-12-16T21:28:24.508Z,56.60
2022-12-16T21:31:11.574Z,60.73
2022-12-16T21:33:57.363Z,56.70
2022-12-16T21:36:45.241Z,60.17
2022-12-16T21:39:31.272Z,61.10
2022-12-16T21:42:16.700Z,55.57
2022-12-16T21:45:04.998Z,50.40
2022-12-16T21:47:51.805Z,51.90
2022-12-16T21:50:37.437Z,46.80
2022-12-16T21:53:25.226Z,48.20
2022-12-16T21:56:14.797Z,42.57
2022-12-16T21:59:02.109Z,45.40
2022-12-16T22:01:47.729Z,45.73
2022-12-16T22:04:34.584Z,35.67
2022-12-16T22:07:19.942Z,37.67
2022-12-16T22:10:05.479Z,35.63
2022-12-16T22:12:56.245Z,35.20
2022-12-16T22:15:41.955Z,34.50
2022-12-16T22:18:27.707Z,33.23
2022-12-16T22:21:18.899Z,30.53
2022-12-16T22:24:07.006Z,33.30
2022-12-16T22:26:54.949Z,32.13
2022-12-16T22:29:42.243Z,30.13
2022-12-16T22:32:30.071Z,34.00
2022-12-16T22:35:18.011Z,35.57
2022-12-16T22:38:05.127Z,37.70
2022-12-16T22:40:53.207Z,34.40
2022-12-16T22:43:46.970Z,31.73
2022-12-16T22:46:32.597Z,35.70
2022-12-16T22:49:18.853Z,39.37
2022-12-16T22:52:04.728Z,36.47
2022-12-16T22:54:53.793Z,40.17
2022-12-16T22:57:39.624Z,37.57
2022-12-16T23:00:26.588Z,36.07
2022-12-16T23:03:15.110Z,39.80
2022-12-16T23:06:09.546Z,36.13
2022-12-16T23:08:57.637Z,35.47
2022-12-16T23:11:51.393Z,39.27
2022-12-16T23:14:42.782Z,37.70
2022-12-16T23:17:37.757Z,35.90
2022-12-16T23:20:27.197Z,37.57
2022-12-16T23:23:12.430Z,39.83
2022-12-16T23:25:58.074Z,42.73
2022-12-16T23:28:45.379Z,43.17
2022-12-16T23:31:34.398Z,41.13
2022-12-16T23:34:20.012Z,33.90
2022-12-16T23:37:08.126Z,32.93
2022-12-16T23:39:53.901Z,61.97
2022-12-16T23:42:41.898Z,33.43
2022-12-16T23:45:29.004Z,31.10
2022-12-16T23:48:21.166Z,30.97
2022-12-16T23:51:06.826Z,34.07
2022-12-16T23:53:54.676Z,35.43
2022-12-16T23:56:42.238Z,29.07
2022-12-16T23:59:28.390Z,30.70
